createdAt,value
2023-05-06T00:01:08.924Z,14.51
2023-05-06T00:03:36.645Z,14.52
2023-05-06T00:06:07.094Z,14.26
2023-05-06T00:08:34.647Z,14.12
2023-05-06T00:11:02.167Z,14.09
2023-05-06T00:13:29.746Z,13.99
2023-05-06T00:15:57.254Z,14.04
2023-05-06T00:18:24.718Z,14.06
2023-05-06T00:20:52.248Z,14.07
2023-05-06T00:23:21.122Z,14.10
2023-05-06T00:25:48.600Z,14.12
2023-05-06T00:28:16.086Z,14.02
2023-05-06T00:30:43.828Z,14.00
2023-05-06T00:33:11.369Z,14.00
2023-05-06T00:35:40.090Z,14.15
2023-05-06T00:38:09.702Z,14.15
2023-05-06T00:40:38.568Z,14.15
2023-05-06T00:43:06.520Z,14.13
2023-05-06T00:45:34.335Z,14.10
2023-05-06T00:48:02.249Z,13.99
2023-05-06T00:50:31.236Z,13.98
2023-05-06T00:52:59.855Z,13.92
2023-05-06T00:55:27.562Z,13.83
2023-05-06T00:57:56.645Z,13.80
2023-05-06T01:00:24.303Z,13.82
2023-05-06T01:02:52.767Z,13.84
2023-05-06T01:05:22.499Z,13.80
2023-05-06T01:07:53.744Z,13.84
2023-05-06T01:10:28.973Z,13.85
2023-05-06T01:13:02.712Z,13.96
2023-05-06T01:15:34.410Z,13.90
2023-05-06T01:18:05.980Z,13.82
2023-05-06T01:20:34.209Z,13.87
2023-05-06T01:23:02.910Z,13.93
2023-05-06T01:25:33.689Z,13.82
2023-05-06T01:28:01.241Z,13.84
2023-05-06T01:30:33.311Z,13.76
2023-05-06T01:33:05.343Z,13.73
2023-05-06T01:35:36.845Z,13.75
2023-05-06T01:38:08.624Z,13.76
2023-05-06T01:40:37.959Z,13.71
2023-05-06T01:43:06.393Z,13.77
2023-05-06T01:45:35.628Z,13.77
2023-05-06T01:48:05.473Z,13.72
2023-05-06T01:50:33.806Z,13.76
2023-05-06T01:53:03.008Z,13.68
2023-05-06T01:55:30.821Z,13.59
2023-05-06T01:58:00.647Z,13.62
2023-05-06T02:00:28.248Z,13.58
2023-05-06T02:02:55.807Z,13.59
2023-05-06T02:05:23.744Z,13.68
2023-05-06T02:07:55.461Z,13.64
2023-05-06T02:10:23.223Z,13.53
2023-05-06T02:12:58.068Z,13.38
2023-05-06T02:15:27.529Z,13.50
2023-05-06T02:17:57.090Z,13.41
2023-05-06T02:20:24.923Z,13.41
2023-05-06T02:22:52.435Z,13.39
2023-05-06T02:25:20.156Z,13.34
2023-05-06T02:27:47.616Z,13.36
2023-05-06T02:30:15.609Z,13.30
2023-05-06T02:32:44.459Z,13.29
2023-05-06T02:35:12.154Z,13.16
2023-05-06T02:37:39.672Z,13.19
2023-05-06T02:40:08.924Z,13.20
2023-05-06T02:42:36.470Z,13.27
2023-05-06T02:45:04.785Z,13.19
2023-05-06T02:47:33.198Z,13.19
2023-05-06T02:50:02.123Z,13.21
2023-05-06T02:52:29.605Z,13.21
2023-05-06T02:54:57.303Z,13.21
2023-05-06T02:57:24.835Z,13.07
2023-05-06T02:59:52.349Z,13.01
2023-05-06T03:02:19.820Z,12.94
2023-05-06T03:04:47.491Z,12.94
2023-05-06T03:07:16.323Z,12.92
2023-05-06T03:09:44.592Z,13.05
2023-05-06T03:12:12.725Z,13.01
2023-05-06T03:14:40.651Z,12.92
2023-05-06T03:17:08.177Z,12.87
2023-05-06T03:19:37.579Z,12.94
2023-05-06T03:22:07.157Z,12.88
2023-05-06T03:24:38.567Z,12.93
2023-05-06T03:27:07.419Z,12.87
2023-05-06T03:29:35.058Z,12.92
2023-05-06T03:32:04.518Z,12.91
2023-05-06T03:34:36.468Z,12.93
2023-05-06T03:37:04.525Z,12.83
2023-05-06T03:39:32.192Z,12.80
2023-05-06T03:42:02.965Z,12.87
2023-05-06T03:44:30.790Z,12.88
2023-05-06T03:46:59.530Z,12.81
2023-05-06T03:49:28.603Z,12.85
2023-05-06T03:51:56.362Z,12.93
2023-05-06T03:54:25.994Z,12.94
2023-05-06T03:56:54.232Z,13.00
2023-05-06T03:59:23.440Z,13.00
2023-05-06T04:01:51.761Z,12.90
2023-05-06T04:04:19.826Z,12.94
2023-05-06T04:06:47.314Z,12.90
2023-05-06T04:09:14.849Z,12.90
2023-05-06T04:11:42.531Z,12.99
2023-05-06T04:14:13.225Z,12.93
2023-05-06T04:16:42.091Z,12.86
2023-05-06T04:19:09.716Z,12.85
2023-05-06T04:21:37.676Z,12.86
2023-05-06T04:24:09.462Z,12.93
2023-05-06T04:26:39.781Z,12.92
2023-05-06T04:29:08.765Z,12.99
2023-05-06T04:31:44.075Z,13.03
2023-05-06T04:34:13.698Z,12.95
2023-05-06T04:36:41.881Z,13.04
2023-05-06T04:39:18.123Z,13.01
2023-05-06T04:41:46.298Z,12.97
2023-05-06T04:44:19.432Z,12.97
2023-05-06T04:46:49.100Z,12.78
2023-05-06T04:49:17.283Z,12.70
2023-05-06T04:51:45.547Z,12.78
2023-05-06T04:54:13.566Z,12.90
2023-05-06T04:56:41.661Z,13.02
2023-05-06T04:59:11.685Z,12.96
2023-05-06T05:01:41.009Z,12.89
2023-05-06T05:04:11.226Z,12.82
2023-05-06T05:06:38.739Z,12.81
2023-05-06T05:09:06.341Z,12.76
2023-05-06T05:11:34.798Z,12.85
2023-05-06T05:14:02.530Z,12.93
2023-05-06T05:16:31.299Z,13.00
2023-05-06T05:19:01.477Z,13.01
2023-05-06T05:21:32.865Z,13.08
2023-05-06T05:24:00.914Z,13.22
2023-05-06T05:26:28.490Z,13.19
2023-05-06T05:28:58.535Z,13.27
2023-05-06T05:31:26.101Z,13.28
2023-05-06T05:33:53.791Z,13.37
2023-05-06T05:36:23.633Z,13.43
2023-05-06T05:38:56.201Z,13.34
2023-05-06T05:41:26.934Z,13.34
2023-05-06T05:43:56.177Z,13.36
2023-05-06T05:46:24.537Z,13.42
2023-05-06T05:48:52.737Z,13.47
2023-05-06T05:51:22.781Z,13.56
2023-05-06T05:53:52.242Z,13.62
2023-05-06T05:56:23.007Z,13.65
2023-05-06T05:58:50.495Z,13.69
2023-05-06T06:01:18.475Z,13.71
2023-05-06T06:03:48.093Z,13.84
2023-05-06T06:06:15.756Z,13.75
2023-05-06T06:08:43.883Z,13.76
2023-05-06T06:11:12.997Z,13.82
2023-05-06T06:13:43.527Z,13.90
2023-05-06T06:16:11.783Z,13.99
2023-05-06T06:18:39.337Z,14.10
2023-05-06T06:21:06.953Z,14.01
2023-05-06T06:23:35.734Z,14.02
2023-05-06T06:26:03.800Z,14.09
2023-05-06T06:28:33.508Z,14.12
2023-05-06T06:31:02.873Z,14.19
2023-05-06T06:33:30.396Z,14.28
2023-05-06T06:35:58.274Z,14.36
2023-05-06T06:38:25.827Z,14.45
2023-05-06T06:40:53.404Z,14.53
2023-05-06T06:43:20.911Z,14.59
2023-05-06T06:46:04.027Z,14.53
2023-05-06T06:48:31.690Z,14.47
2023-05-06T06:50:59.204Z,14.48
2023-05-06T06:53:26.701Z,14.41
2023-05-06T06:55:54.191Z,14.25
2023-05-06T06:58:21.698Z,14.08
2023-05-06T07:00:49.263Z,14.04
2023-05-06T07:03:19.557Z,14.04
2023-05-06T07:05:47.310Z,14.02
2023-05-06T07:08:15.587Z,13.86
2023-05-06T07:10:43.041Z,13.98
2023-05-06T07:13:10.549Z,14.09
2023-05-06T07:15:38.067Z,14.22
2023-05-06T07:18:05.913Z,14.28
2023-05-06T07:20:34.886Z,14.40
2023-05-06T07:23:02.365Z,14.37
2023-05-06T07:25:31.277Z,14.36
2023-05-06T07:27:59.004Z,14.46
2023-05-06T07:30:26.576Z,14.36
2023-05-06T07:32:54.291Z,14.44
2023-05-06T07:35:21.788Z,14.42
2023-05-06T07:37:50.663Z,14.53
2023-05-06T07:40:18.179Z,14.26
2023-05-06T07:42:45.654Z,14.36
2023-05-06T07:45:13.262Z,14.42
2023-05-06T07:47:40.868Z,14.46
2023-05-06T07:50:10.543Z,14.43
2023-05-06T07:52:38.077Z,14.05
2023-05-06T07:55:10.080Z,14.25
2023-05-06T07:57:37.920Z,13.96
2023-05-06T08:00:06.997Z,14.09
2023-05-06T08:02:44.359Z,14.05
2023-05-06T08:05:12.411Z,14.09
2023-05-06T08:07:40.988Z,14.07
2023-05-06T08:10:11.149Z,14.18
2023-05-06T08:12:38.723Z,14.22
2023-05-06T08:15:07.269Z,14.40
2023-05-06T08:17:34.806Z,14.56
2023-05-06T08:20:02.364Z,14.77
2023-05-06T08:22:29.862Z,14.90
2023-05-06T08:24:57.476Z,15.02
2023-05-06T08:27:26.621Z,15.18
2023-05-06T08:29:54.443Z,15.17
2023-05-06T08:32:21.972Z,15.18
2023-05-06T08:34:49.460Z,15.31
2023-05-06T08:37:17.006Z,15.41
2023-05-06T08:39:45.553Z,15.46
2023-05-06T08:42:13.115Z,15.65
2023-05-06T08:44:43.869Z,15.90
2023-05-06T08:47:11.357Z,15.71
2023-05-06T08:49:38.946Z,16.01
2023-05-06T08:52:07.024Z,15.79
2023-05-06T08:54:35.352Z,15.63
2023-05-06T08:57:05.035Z,15.38
2023-05-06T08:59:33.796Z,15.53
2023-05-06T09:02:03.411Z,15.57
2023-05-06T09:04:31.106Z,15.73
2023-05-06T09:06:59.554Z,15.88
2023-05-06T09:09:27.308Z,16.08
2023-05-06T09:11:57.325Z,16.20
2023-05-06T09:14:25.138Z,16.47
2023-05-06T09:16:53.731Z,16.35
2023-05-06T09:19:23.408Z,16.27
2023-05-06T09:21:52.484Z,16.23
2023-05-06T09:24:20.420Z,16.37
2023-05-06T09:26:48.285Z,16.55
2023-05-06T09:29:16.062Z,16.77
2023-05-06T09:31:44.823Z,16.79
2023-05-06T09:34:13.032Z,16.80
2023-05-06T09:36:42.019Z,16.75
2023-05-06T09:39:10.081Z,16.77
2023-05-06T09:41:37.805Z,16.83
2023-05-06T09:44:06.097Z,16.95
2023-05-06T09:46:33.902Z,16.99
2023-05-06T09:49:01.608Z,16.99
2023-05-06T09:51:29.318Z,16.78
2023-05-06T09:53:59.104Z,16.70
2023-05-06T09:56:26.949Z,16.83
2023-05-06T09:58:55.500Z,16.67
2023-05-06T10:01:35.367Z,16.59
2023-05-06T10:04:06.945Z,16.60
2023-05-06T10:06:39.344Z,16.74
2023-05-06T10:09:08.122Z,16.83
2023-05-06T10:11:36.456Z,17.02
2023-05-06T10:14:04.980Z,16.77
2023-05-06T10:16:35.752Z,16.93
2023-05-06T10:19:04.809Z,17.32
2023-05-06T10:21:39.286Z,17.38
2023-05-06T10:24:11.981Z,17.14
2023-05-06T10:26:40.040Z,17.14
2023-05-06T10:29:10.388Z,17.25
2023-05-06T10:31:41.891Z,17.46
2023-05-06T10:34:10.926Z,17.77
2023-05-06T10:36:38.977Z,18.13
2023-05-06T10:39:10.653Z,18.23
2023-05-06T10:41:38.442Z,18.64
2023-05-06T10:44:07.037Z,18.73
2023-05-06T10:46:58.485Z,19.15
2023-05-06T10:49:26.125Z,19.22
2023-05-06T10:52:11.999Z,19.46
2023-05-06T10:54:51.440Z,19.47
2023-05-06T10:57:20.734Z,19.57
2023-05-06T10:59:49.485Z,19.72
2023-05-06T11:02:20.183Z,19.82
2023-05-06T11:04:51.857Z,19.19
2023-05-06T11:07:24.181Z,19.49
2023-05-06T11:09:58.248Z,19.89
2023-05-06T11:12:46.050Z,20.23
2023-05-06T11:15:21.575Z,20.11
2023-05-06T11:17:49.320Z,20.33
2023-05-06T11:20:21.130Z,20.59
2023-05-06T11:22:48.668Z,20.55
2023-05-06T11:25:40.353Z,20.86
2023-05-06T11:28:09.220Z,20.77
2023-05-06T11:30:37.749Z,20.95
2023-05-06T11:33:05.933Z,21.36
2023-05-06T11:35:36.975Z,21.48
2023-05-06T11:38:05.084Z,21.04
2023-05-06T11:40:34.188Z,20.89
2023-05-06T11:43:11.768Z,20.86
2023-05-06T11:45:43.709Z,20.62
2023-05-06T11:48:13.012Z,21.08
2023-05-06T11:50:45.262Z,21.21
2023-05-06T11:53:15.084Z,21.24
2023-05-06T11:55:44.726Z,21.20
2023-05-06T11:58:16.427Z,20.32
2023-05-06T12:00:51.373Z,20.75
2023-05-06T12:03:19.909Z,21.31
2023-05-06T12:05:48.679Z,21.30
2023-05-06T12:08:26.560Z,21.27
2023-05-06T12:11:00.779Z,21.67
2023-05-06T12:13:28.872Z,21.84
2023-05-06T12:15:56.787Z,21.74
2023-05-06T12:18:24.837Z,21.55
2023-05-06T12:20:54.646Z,20.93
2023-05-06T12:23:22.680Z,20.84
2023-05-06T12:26:03.816Z,20.91
2023-05-06T12:28:32.455Z,20.65
2023-05-06T12:30:59.992Z,20.58
2023-05-06T12:33:27.481Z,20.91
2023-05-06T12:35:58.257Z,20.74
2023-05-06T12:38:25.974Z,20.75
2023-05-06T12:40:54.682Z,21.20
2023-05-06T12:43:30.926Z,21.45
2023-05-06T12:46:06.500Z,21.74
2023-05-06T12:48:34.407Z,21.72
2023-05-06T12:51:02.202Z,21.94
2023-05-06T12:53:33.992Z,22.00
2023-05-06T12:56:01.608Z,21.87
2023-05-06T12:58:30.819Z,21.90
2023-05-06T13:00:58.377Z,21.99
2023-05-06T13:03:26.166Z,21.90
2023-05-06T13:05:53.811Z,21.99
2023-05-06T13:08:21.396Z,22.01
2023-05-06T13:10:48.873Z,22.14
2023-05-06T13:13:16.507Z,22.16
2023-05-06T13:15:45.444Z,22.18
2023-05-06T13:18:12.920Z,22.01
2023-05-06T13:20:40.705Z,22.12
2023-05-06T13:23:08.208Z,21.87
2023-05-06T13:25:44.628Z,21.53
2023-05-06T13:28:19.696Z,21.78
2023-05-06T13:30:48.546Z,21.88
2023-05-06T13:33:16.056Z,22.02
2023-05-06T13:35:43.523Z,21.60
2023-05-06T13:38:11.021Z,21.74
2023-05-06T13:40:38.534Z,21.88
2023-05-06T13:43:06.057Z,21.89
2023-05-06T13:45:34.252Z,22.06
2023-05-06T13:48:03.123Z,22.00
2023-05-06T13:50:30.668Z,21.88
2023-05-06T13:52:58.180Z,21.89
2023-05-06T13:55:25.880Z,21.74
2023-05-06T13:57:53.361Z,21.45
2023-05-06T14:00:21.313Z,21.31
2023-05-06T14:02:48.763Z,21.35
2023-05-06T14:05:17.757Z,21.03
2023-05-06T14:07:45.282Z,20.93
2023-05-06T14:10:12.839Z,20.92
2023-05-06T14:12:40.628Z,21.04
2023-05-06T14:15:09.093Z,21.16
2023-05-06T14:17:37.129Z,21.12
2023-05-06T14:20:06.208Z,21.16
2023-05-06T14:22:35.070Z,21.17
2023-05-06T14:25:02.557Z,21.08
2023-05-06T14:27:30.988Z,21.20
2023-05-06T14:29:58.503Z,21.29
2023-05-06T14:32:26.238Z,21.35
2023-05-06T14:34:53.734Z,20.91
2023-05-06T14:37:21.550Z,20.92
2023-05-06T14:39:50.732Z,21.07
2023-05-06T14:42:18.210Z,21.06
2023-05-06T14:44:48.728Z,21.08
2023-05-06T14:47:16.240Z,21.09
2023-05-06T14:49:44.144Z,21.09
2023-05-06T14:52:11.671Z,20.68
2023-05-06T14:54:42.105Z,20.57
2023-05-06T14:57:11.276Z,20.73
2023-05-06T14:59:39.043Z,20.87
2023-05-06T15:02:09.743Z,20.69
2023-05-06T15:04:37.508Z,20.49
2023-05-06T15:07:05.052Z,20.52
2023-05-06T15:09:32.653Z,20.35
2023-05-06T15:12:00.429Z,20.35
2023-05-06T15:14:29.236Z,20.39
2023-05-06T15:16:57.795Z,20.57
2023-05-06T15:19:25.759Z,20.49
2023-05-06T15:21:53.225Z,20.19
2023-05-06T15:24:20.720Z,20.05
2023-05-06T15:26:48.219Z,19.83
2023-05-06T15:29:15.732Z,19.88
2023-05-06T15:31:46.082Z,19.91
2023-05-06T15:34:14.346Z,19.69
2023-05-06T15:36:42.246Z,19.64
2023-05-06T15:39:09.762Z,19.66
2023-05-06T15:41:38.834Z,19.52
2023-05-06T15:44:06.685Z,19.50
2023-05-06T15:46:34.477Z,19.62
2023-05-06T15:49:32.009Z,19.66
2023-05-06T15:51:50.946Z,19.37
2023-05-06T15:54:19.157Z,19.19
2023-05-06T15:56:47.036Z,19.32
2023-05-06T15:59:14.568Z,19.36
2023-05-06T16:02:24.448Z,19.40
2023-05-06T16:04:31.290Z,19.36
2023-05-06T16:06:59.016Z,19.55
2023-05-06T16:09:27.151Z,19.55
2023-05-06T16:11:55.001Z,19.38
2023-05-06T16:14:22.694Z,19.45
2023-05-06T16:16:50.201Z,19.49
2023-05-06T16:19:17.706Z,19.43
2023-05-06T16:21:46.545Z,19.30
2023-05-06T16:24:14.087Z,19.23
2023-05-06T16:26:42.378Z,18.87
2023-05-06T16:29:10.206Z,18.80
2023-05-06T16:31:38.126Z,18.80
2023-05-06T16:34:06.326Z,18.77
2023-05-06T16:36:33.922Z,18.61
2023-05-06T16:39:03.077Z,18.76
2023-05-06T16:41:30.616Z,18.75
2023-05-06T16:43:58.457Z,18.64
2023-05-06T16:46:26.238Z,18.71
2023-05-06T16:48:53.995Z,18.74
2023-05-06T16:51:21.524Z,18.61
2023-05-06T16:53:49.000Z,18.66
2023-05-06T16:56:17.904Z,18.70
2023-05-06T16:58:45.429Z,18.66
2023-05-06T17:01:13.009Z,18.63
2023-05-06T17:03:40.868Z,18.60
2023-05-06T17:06:08.549Z,18.61
2023-05-06T17:08:37.169Z,18.61
2023-05-06T17:11:06.713Z,18.57
2023-05-06T17:13:35.802Z,18.48
2023-05-06T17:16:03.332Z,18.45
2023-05-06T17:18:30.874Z,18.37
2023-05-06T17:20:58.574Z,18.41
2023-05-06T17:23:26.226Z,18.39
2023-05-06T17:25:53.836Z,18.64
2023-05-06T17:28:21.497Z,18.38
2023-05-06T17:30:50.334Z,18.21
2023-05-06T17:33:17.959Z,18.11
2023-05-06T17:35:45.872Z,18.00
2023-05-06T17:38:13.783Z,17.90
2023-05-06T17:40:41.283Z,17.87
2023-05-06T17:43:08.769Z,17.76
2023-05-06T17:45:36.288Z,17.74
2023-05-06T17:48:05.953Z,17.67
2023-05-06T17:50:33.646Z,17.68
2023-05-06T17:53:01.161Z,17.71
2023-05-06T17:55:28.711Z,17.58
2023-05-06T17:57:56.281Z,17.57
2023-05-06T18:00:24.017Z,17.40
2023-05-06T18:02:51.565Z,17.34
2023-05-06T18:05:21.690Z,17.33
2023-05-06T18:07:49.290Z,17.28
2023-05-06T18:10:16.810Z,17.14
2023-05-06T18:12:45.291Z,17.13
2023-05-06T18:15:13.323Z,17.07
2023-05-06T18:17:41.081Z,17.00
2023-05-06T18:20:10.702Z,16.98
2023-05-06T18:22:39.944Z,16.93
2023-05-06T18:25:08.813Z,16.91
2023-05-06T18:27:36.973Z,16.88
2023-05-06T18:30:04.774Z,16.68
2023-05-06T18:32:32.504Z,16.67
2023-05-06T18:35:00.071Z,16.63
2023-05-06T18:37:28.678Z,16.55
2023-05-06T18:39:57.508Z,16.55
2023-05-06T18:42:25.002Z,16.45
2023-05-06T18:44:52.546Z,16.39
2023-05-06T18:47:20.246Z,16.37
2023-05-06T18:49:48.599Z,16.33
2023-05-06T18:52:17.654Z,16.29
2023-05-06T18:54:45.188Z,16.31
2023-05-06T18:57:14.374Z,16.24
2023-05-06T18:59:42.131Z,16.23
2023-05-06T19:02:09.610Z,16.16
2023-05-06T19:04:37.813Z,16.15
2023-05-06T19:07:05.495Z,16.04
2023-05-06T19:09:36.808Z,15.98
2023-05-06T19:12:04.726Z,15.97
2023-05-06T19:14:34.612Z,15.95
2023-05-06T19:17:03.336Z,15.87
2023-05-06T19:19:31.212Z,15.86
2023-05-06T19:22:01.642Z,15.78
2023-05-06T19:24:30.819Z,15.76
2023-05-06T19:26:58.292Z,15.55
2023-05-06T19:29:25.873Z,15.53
2023-05-06T19:31:54.948Z,15.48
2023-05-06T19:34:22.426Z,15.45
2023-05-06T19:36:49.956Z,15.43
2023-05-06T19:39:17.425Z,15.45
2023-05-06T19:41:44.989Z,15.46
2023-05-06T19:44:12.524Z,15.45
2023-05-06T19:46:40.206Z,15.44
2023-05-06T19:49:09.202Z,15.41
2023-05-06T19:51:36.675Z,15.24
2023-05-06T19:54:04.434Z,15.16
2023-05-06T19:56:31.916Z,14.99
2023-05-06T19:58:59.391Z,15.05
2023-05-06T20:01:27.157Z,14.98
2023-05-06T20:03:55.192Z,14.91
2023-05-06T20:06:24.110Z,14.91
2023-05-06T20:08:51.627Z,14.89
2023-05-06T20:11:19.118Z,14.91
2023-05-06T20:13:46.608Z,14.90
2023-05-06T20:16:14.170Z,14.90
2023-05-06T20:18:42.799Z,14.87
2023-05-06T20:21:10.288Z,14.82
2023-05-06T20:23:39.074Z,14.79
2023-05-06T20:26:06.600Z,14.79
2023-05-06T20:28:37.661Z,14.76
2023-05-06T20:31:05.337Z,14.73
2023-05-06T20:33:32.864Z,14.67
2023-05-06T20:36:00.325Z,14.67
2023-05-06T20:38:30.759Z,14.61
2023-05-06T20:41:02.657Z,14.59
2023-05-06T20:43:30.307Z,14.55
2023-05-06T20:45:57.947Z,14.43
2023-05-06T20:48:27.674Z,14.41
2023-05-06T20:50:56.993Z,14.33
2023-05-06T20:53:24.581Z,14.26
2023-05-06T20:55:52.679Z,14.09
2023-05-06T20:58:21.520Z,13.98
2023-05-06T21:00:49.986Z,13.86
2023-05-06T21:03:17.691Z,13.94
2023-05-06T21:05:45.286Z,13.78
2023-05-06T21:08:12.808Z,13.91
2023-05-06T21:10:40.503Z,13.95
2023-05-06T21:13:08.020Z,13.94
2023-05-06T21:15:37.649Z,13.99
2023-05-06T21:18:05.286Z,13.94
2023-05-06T21:20:32.903Z,13.92
2023-05-06T21:23:00.552Z,13.90
2023-05-06T21:25:28.164Z,13.87
2023-05-06T21:27:55.748Z,13.87
2023-05-06T21:30:23.336Z,13.86
2023-05-06T21:32:52.269Z,13.73
2023-05-06T21:35:19.913Z,13.74
2023-05-06T21:37:47.387Z,13.67
2023-05-06T21:40:14.970Z,13.66
2023-05-06T21:42:42.462Z,13.66
2023-05-06T21:45:11.515Z,13.66
2023-05-06T21:47:39.254Z,13.48
2023-05-06T21:50:10.526Z,13.45
2023-05-06T21:52:38.063Z,13.48
2023-05-06T21:55:06.584Z,13.46
2023-05-06T21:57:34.175Z,13.42
2023-05-06T22:00:01.717Z,13.26
2023-05-06T22:02:29.277Z,13.23
2023-05-06T22:04:56.782Z,13.20
2023-05-06T22:07:25.599Z,13.16
2023-05-06T22:09:53.100Z,13.22
2023-05-06T22:12:20.583Z,13.26
2023-05-06T22:14:48.111Z,13.29
2023-05-06T22:17:15.803Z,13.33
2023-05-06T22:19:43.320Z,13.28
2023-05-06T22:22:11.467Z,13.23
2023-05-06T22:24:40.374Z,13.23
2023-05-06T22:27:07.865Z,13.29
2023-05-06T22:29:35.978Z,13.22
2023-05-06T22:32:03.867Z,13.27
2023-05-06T22:34:31.445Z,13.25
2023-05-06T22:37:00.467Z,13.20
2023-05-06T22:39:28.552Z,13.08
2023-05-06T22:41:57.354Z,13.05
2023-05-06T22:44:24.870Z,13.03
2023-05-06T22:46:52.955Z,13.04
2023-05-06T22:49:20.425Z,13.00
2023-05-06T22:51:48.051Z,12.94
2023-05-06T22:54:15.539Z,12.97
2023-05-06T22:56:43.027Z,12.60
2023-05-06T22:59:11.837Z,12.70
2023-05-06T23:01:39.414Z,12.76
2023-05-06T23:04:07.313Z,12.79
2023-05-06T23:06:34.885Z,12.81
2023-05-06T23:09:02.386Z,12.67
2023-05-06T23:11:29.874Z,12.73
2023-05-06T23:13:57.364Z,12.75
2023-05-06T23:16:26.308Z,12.73
2023-05-06T23:18:54.855Z,12.78
2023-05-06T23:21:22.543Z,12.68
2023-05-06T23:23:50.035Z,12.70
2023-05-06T23:26:17.538Z,12.72
2023-05-06T23:28:45.029Z,12.68
2023-05-06T23:31:12.563Z,12.68
2023-05-06T23:33:41.408Z,12.65
2023-05-06T23:36:09.115Z,12.68
2023-05-06T23:38:36.614Z,12.68
2023-05-06T23:41:04.116Z,12.65
2023-05-06T23:43:31.608Z,12.57
2023-05-06T23:45:59.135Z,12.55
2023-05-06T23:48:26.644Z,12.57
2023-05-06T23:50:55.621Z,12.56
2023-05-06T23:53:23.115Z,12.52
2023-05-06T23:55:50.663Z,12.27
2023-05-06T23:58:18.172Z,12.39
